Impacts TAF Board
For situational awareness. Not to be used for flight planning purposes.
IDs:

KBHM - Birmingham Intl, AL, US

Issued at 0536 UTC 24 Jan 2019
Updated at 0725 UTC 24 Jan 2019
Potential Impact None Slight Moderate High
Time<<24/20Z 24/21Z 24/22Z 24/23Z 25/00Z 25/01Z 25/02Z 25/03Z 25/04Z 25/05Z 25/06Z 25/07Z 25/08Z>>
Type PRVL PRVL PRVL PRVL PRVL PRVL PRVL PRVL PRVL PRVL
VIS >6 >6 >6 >6 >6 >6 >6 >6 >6 >6
CIG -- -- -- -- -- -- -- -- -- --
Cover SCT SCT SCT SCT SCT SCT SCT SCT SCT SCT
FltCat VFR VFR VFR VFR VFR VFR VFR VFR VFR VFR
WX -- -- -- -- -- -- -- -- -- --
WDir 310 310 310 310 310 310 310 310 310 310
WSpd 8 8 8 8 8 8 8 8 8 8
WGst -- -- -- -- -- -- -- -- -- --
Raw TAF
KBHM 240536Z 2406/2506 30012G18KT 5SM BR OVC008
  FM241100 31010KT P6SM OVC015
  FM241400 31010KT P6SM BKN025
  FM241800 31008KT P6SM SCT025


METAR Board
Radar Display
Forecast Discussion
For situational awareness. Not to be used for flight planning purposes.